首页
METAR-TAF:

METAR-TAF

机场 :

华欣, 泰国

纬度: 12-35N, 经度: 099-57E, 海拔: 5米

当前天气观测

该预报发布于44分钟前的22:00 UTC
风速2节,风向多变
温度 29°C
湿度 74%
气压 1006 hPa
能见度10公里或以上
少量云层高于3000英尺

METAR: VTPH 282200Z VRB02KT 9999 FEW030 29/24 Q1006 NOSIG

时间: 05:44 (22:44 UTC)

预报

该预报发布于5小时和44分钟前的17:00 UTC
预报有效从28日的 18点(UTC)到 29日的 18点(UTC)
风速3节,风向西转西南
能见度10公里或以上
散云层高于3000英尺
成为
从 29日的 04点(UTC)到 29日的 06点(UTC)
风速10节,风向南转南东
成为
从 29日的 15点(UTC)到 29日的 17点(UTC)
风速3节,风向西转西南

TAF: VTPH 281700Z 2818/2918 24003KT 9999 SCT030 BECMG 2904/2906 15010KT BECMG 2915/2917 24003KT

超过4000个机场的气象观测和天气预报(METAR&TAF报告)。

可查询的气象台以黄色和红色小点在地图上表示。

将鼠标移到小点上方,可查看气象台名称。

然后点击查看天气观测和预报。

如需切换地图:点击带黑十字的绿色按钮放大地图;点击带横线的绿色按钮缩小地图;或者点击绿色箭头查看邻近地区的地图。


METAR-TAF: